Estación Meteorológica Peña el Pijo (Robertgarden) [ 04/19/21 04:39:09 CEST ]

Fecha Hora Presion(HPa) Temp (°C) Humedad % Rocio (°C) Viento ( m/s) Direccion Lluvia 1Hora(mm) Lluvia 24H(mm) LLuvia Total(mm)
2021-Apr-12 01:09:26 1008.800 7.4 94 6.5 - N     89.61
2021-Apr-12 02:09:57 1009.200 8.1 95 7.3 - N     89.61
2021-Apr-12 03:10:09 1009.100 8.1 95 7.3 - N     89.61
2021-Apr-12 04:09:53 1009.100 8.2 95 7.4 - N     89.61
2021-Apr-12 05:09:46 1009.000 7.7 95 6.9 - N     89.61
2021-Apr-12 06:14:12 1009.100 6.4 95 5.6 - N     89.61
2021-Apr-12 07:09:31 1009.300 5.3 95 4.5 - N     89.61
2021-Apr-12 08:09:47 1009.900 4.9 96 4.3 - N     89.61
2021-Apr-12 09:09:41 1010.500 11.0 90 9.4 - N     89.61
2021-Apr-12 10:09:18 1010.700 14.3 73 9.5 - N     89.61
2021-Apr-12 11:09:46 1011.400 17.8 64 10.9 - N     89.61
2021-Apr-12 12:09:16 1011.800 17.8 60 9.9 - N     89.61
2021-Apr-12 13:09:31 1011.900 16.9 60 9.1 - N     89.61
2021-Apr-12 14:09:21 1011.700 18.1 57 9.4 - N     89.61
2021-Apr-12 15:09:19 1011.300 17.5 55 8.3 - N     89.61
2021-Apr-12 16:09:21 1011.100 15.8 60 8.1 - N     89.61
2021-Apr-12 17:09:54 1011.000 15.9 60 8.2 - N     89.61
2021-Apr-12 18:09:23 1010.600 16.8 57 8.2 - N     89.61
2021-Apr-12 19:09:15 1010.600 17.2 56 8.3 - N     89.61
2021-Apr-12 20:09:20 1011.300 14.2 66 7.9 - N     89.61
2021-Apr-12 21:09:35 1011.700 11.9 75 7.6 - N     89.61
2021-Apr-12 22:10:32 1012.200 11.1 78 7.4 - N     89.61
2021-Apr-12 23:09:07 1012.600 10.4 81 7.3 - N     89.61

Temperatura Máxima:18°    Temperatura Mínima:
Presión Máxima:1012.600 Hpa    Presión Mínima:1008.800 Hpa


Volver